createdAt,value
2023-05-09T00:00:54.277Z,100.00
2023-05-09T00:03:21.364Z,100.00
2023-05-09T00:05:48.545Z,100.00
2023-05-09T00:08:15.497Z,100.00
2023-05-09T00:10:42.700Z,100.00
2023-05-09T00:13:09.661Z,100.00
2023-05-09T00:15:36.818Z,100.00
2023-05-09T00:18:03.987Z,100.00
2023-05-09T00:20:31.069Z,100.00
2023-05-09T00:22:58.146Z,100.00
2023-05-09T00:25:25.191Z,100.00
2023-05-09T00:27:52.019Z,100.00
2023-05-09T00:30:19.367Z,100.00
2023-05-09T00:32:46.338Z,100.00
2023-05-09T00:35:13.580Z,100.00
2023-05-09T00:37:40.955Z,100.00
2023-05-09T00:40:09.471Z,100.00
2023-05-09T00:42:36.486Z,100.00
2023-05-09T00:45:03.539Z,99.95
2023-05-09T00:47:30.499Z,99.59
2023-05-09T00:49:58.452Z,100.00
2023-05-09T00:52:26.852Z,99.36
2023-05-09T00:54:55.084Z,98.92
2023-05-09T00:57:23.097Z,99.08
2023-05-09T00:59:50.630Z,100.00
2023-05-09T01:02:18.291Z,100.00
2023-05-09T01:04:48.728Z,100.00
2023-05-09T01:07:41.769Z,100.00
2023-05-09T01:10:22.078Z,99.89
2023-05-09T01:13:04.454Z,100.00
2023-05-09T01:15:39.656Z,99.87
2023-05-09T01:18:09.260Z,100.00
2023-05-09T01:20:45.846Z,100.00
2023-05-09T01:23:13.434Z,100.00
2023-05-09T01:26:03.944Z,100.00
2023-05-09T01:28:44.937Z,100.00
2023-05-09T01:31:12.692Z,100.00
2023-05-09T01:33:42.833Z,100.00
2023-05-09T01:36:15.330Z,100.00
2023-05-09T01:38:45.130Z,100.00
2023-05-09T01:41:15.846Z,100.00
2023-05-09T01:43:45.866Z,100.00
2023-05-09T01:46:15.006Z,100.00
2023-05-09T01:48:42.828Z,100.00
2023-05-09T01:51:11.443Z,100.00
2023-05-09T01:53:40.622Z,100.00
2023-05-09T01:56:09.629Z,100.00
2023-05-09T01:58:38.586Z,100.00
2023-05-09T02:01:06.698Z,100.00
2023-05-09T02:03:34.918Z,100.00
2023-05-09T02:06:04.382Z,100.00
2023-05-09T02:08:32.277Z,100.00
2023-05-09T02:11:00.560Z,100.00
2023-05-09T02:13:27.530Z,100.00
2023-05-09T02:15:55.409Z,100.00
2023-05-09T02:18:22.265Z,100.00
2023-05-09T02:20:49.255Z,100.00
2023-05-09T02:23:18.031Z,100.00
2023-05-09T02:25:46.645Z,100.00
2023-05-09T02:28:14.256Z,100.00
2023-05-09T02:30:44.458Z,100.00
2023-05-09T02:33:13.898Z,100.00
2023-05-09T02:35:44.025Z,100.00
2023-05-09T02:38:13.467Z,100.00
2023-05-09T02:40:43.026Z,100.00
2023-05-09T02:43:10.216Z,100.00
2023-05-09T02:45:37.360Z,100.00
2023-05-09T02:48:06.848Z,100.00
2023-05-09T02:50:35.491Z,100.00
2023-05-09T02:53:02.390Z,100.00
2023-05-09T02:55:29.258Z,100.00
2023-05-09T02:58:09.360Z,100.00
2023-05-09T03:00:40.137Z,100.00
2023-05-09T03:03:07.917Z,100.00
2023-05-09T03:05:34.991Z,100.00
2023-05-09T03:08:01.913Z,100.00
2023-05-09T03:10:28.909Z,100.00
2023-05-09T03:12:56.007Z,100.00
2023-05-09T03:15:23.235Z,100.00
2023-05-09T03:17:50.273Z,100.00
2023-05-09T03:20:17.478Z,100.00
2023-05-09T03:22:44.334Z,100.00
2023-05-09T03:25:12.555Z,100.00
2023-05-09T03:27:39.701Z,100.00
2023-05-09T03:30:10.223Z,100.00
2023-05-09T03:32:37.322Z,100.00
2023-05-09T03:35:04.532Z,100.00
2023-05-09T03:37:32.599Z,100.00
2023-05-09T03:39:59.483Z,100.00
2023-05-09T03:42:27.045Z,100.00
2023-05-09T03:44:58.203Z,100.00
2023-05-09T03:47:25.105Z,100.00
2023-05-09T03:49:53.683Z,100.00
2023-05-09T03:52:22.825Z,100.00
2023-05-09T03:54:49.726Z,100.00
2023-05-09T03:57:16.979Z,100.00
2023-05-09T03:59:45.815Z,100.00
2023-05-09T04:02:14.212Z,100.00
2023-05-09T04:04:41.217Z,100.00
2023-05-09T04:07:08.452Z,100.00
2023-05-09T04:09:35.519Z,100.00
2023-05-09T04:12:02.318Z,100.00
2023-05-09T04:14:29.260Z,100.00
2023-05-09T04:16:56.272Z,100.00
2023-05-09T04:19:23.086Z,100.00
2023-05-09T04:21:49.937Z,100.00
2023-05-09T04:24:16.795Z,100.00
2023-05-09T04:26:47.011Z,100.00
2023-05-09T04:29:17.168Z,100.00
2023-05-09T04:31:49.706Z,100.00
2023-05-09T04:34:16.803Z,100.00
2023-05-09T04:36:43.839Z,100.00
2023-05-09T04:39:11.034Z,100.00
2023-05-09T04:41:44.631Z,100.00
2023-05-09T04:44:11.793Z,100.00
2023-05-09T04:46:38.863Z,100.00
2023-05-09T04:49:06.475Z,100.00
2023-05-09T04:51:33.609Z,100.00
2023-05-09T04:54:00.724Z,100.00
2023-05-09T04:56:32.552Z,100.00
2023-05-09T04:59:01.052Z,100.00
2023-05-09T05:01:29.023Z,100.00
2023-05-09T05:03:56.385Z,100.00
2023-05-09T05:06:23.302Z,100.00
2023-05-09T05:08:50.422Z,100.00
2023-05-09T05:11:18.222Z,100.00
2023-05-09T05:13:45.685Z,100.00
2023-05-09T05:16:12.677Z,100.00
2023-05-09T05:18:39.817Z,100.00
2023-05-09T05:21:06.860Z,100.00
2023-05-09T05:23:33.719Z,100.00
2023-05-09T05:26:00.652Z,100.00
2023-05-09T05:28:28.737Z,100.00
2023-05-09T05:30:55.729Z,100.00
2023-05-09T05:33:22.566Z,100.00
2023-05-09T05:35:50.058Z,100.00
2023-05-09T05:38:16.901Z,100.00
2023-05-09T05:40:48.408Z,100.00
2023-05-09T05:43:15.749Z,100.00
2023-05-09T05:45:42.857Z,100.00
2023-05-09T05:48:14.801Z,100.00
2023-05-09T05:50:41.739Z,100.00
2023-05-09T05:53:09.345Z,100.00
2023-05-09T05:55:36.632Z,100.00
2023-05-09T05:58:05.445Z,100.00
2023-05-09T06:00:32.410Z,100.00
2023-05-09T06:03:04.282Z,100.00
2023-05-09T06:05:50.061Z,100.00
2023-05-09T06:08:17.467Z,100.00
2023-05-09T06:10:44.637Z,100.00
2023-05-09T06:13:11.615Z,100.00
2023-05-09T06:15:42.537Z,100.00
2023-05-09T06:18:10.280Z,100.00
2023-05-09T06:20:37.215Z,100.00
2023-05-09T06:23:04.076Z,100.00
2023-05-09T06:25:30.944Z,100.00
2023-05-09T06:27:57.895Z,100.00
2023-05-09T06:30:26.805Z,100.00
2023-05-09T06:32:55.258Z,100.00
2023-05-09T06:35:22.458Z,100.00
2023-05-09T06:37:49.591Z,100.00
2023-05-09T06:40:17.258Z,100.00
2023-05-09T06:42:44.969Z,100.00
2023-05-09T06:45:12.290Z,98.86
2023-05-09T06:47:39.395Z,99.55
2023-05-09T06:50:07.031Z,100.00
2023-05-09T06:52:33.944Z,97.68
2023-05-09T06:55:00.725Z,99.16
2023-05-09T06:57:27.726Z,97.56
2023-05-09T06:59:54.602Z,92.58
2023-05-09T07:02:21.442Z,95.19
2023-05-09T07:04:48.520Z,92.70
2023-05-09T07:07:16.466Z,94.39
2023-05-09T07:09:43.297Z,94.16
2023-05-09T07:12:10.195Z,92.65
2023-05-09T07:14:37.022Z,91.86
2023-05-09T07:17:21.116Z,86.43
2023-05-09T07:19:49.427Z,86.93
2023-05-09T07:22:16.304Z,85.87
2023-05-09T07:24:44.711Z,85.73
2023-05-09T07:27:11.581Z,83.68
2023-05-09T07:29:38.463Z,83.85
2023-05-09T07:32:05.563Z,84.37
2023-05-09T07:34:32.464Z,81.02
2023-05-09T07:36:59.399Z,79.36
2023-05-09T07:39:26.308Z,78.30
2023-05-09T07:41:53.097Z,77.04
2023-05-09T07:44:19.927Z,75.77
2023-05-09T07:46:46.968Z,76.03
2023-05-09T07:49:13.820Z,75.14
2023-05-09T07:51:41.568Z,77.19
2023-05-09T07:54:10.299Z,76.94
2023-05-09T07:56:37.236Z,73.57
2023-05-09T07:59:04.129Z,72.85
2023-05-09T08:01:31.134Z,73.82
2023-05-09T08:03:58.109Z,72.13
2023-05-09T08:06:26.466Z,72.79
2023-05-09T08:08:53.291Z,70.41
2023-05-09T08:11:20.165Z,71.62
2023-05-09T08:13:48.355Z,71.66
2023-05-09T08:16:17.601Z,69.74
2023-05-09T08:18:44.973Z,67.69
2023-05-09T08:21:12.126Z,67.31
2023-05-09T08:23:39.019Z,64.53
2023-05-09T08:26:06.155Z,64.83
2023-05-09T08:28:33.028Z,64.29
2023-05-09T08:30:59.916Z,62.60
2023-05-09T08:33:26.805Z,61.54
2023-05-09T08:35:54.129Z,60.76
2023-05-09T08:38:21.272Z,62.02
2023-05-09T08:40:49.676Z,61.86
2023-05-09T08:43:19.428Z,62.05
2023-05-09T08:45:48.481Z,61.38
2023-05-09T08:48:19.265Z,61.03
2023-05-09T08:50:46.149Z,58.97
2023-05-09T08:53:13.913Z,57.20
2023-05-09T08:55:40.934Z,55.63
2023-05-09T08:58:08.856Z,55.93
2023-05-09T09:00:38.398Z,55.35
2023-05-09T09:03:07.751Z,55.78
2023-05-09T09:05:42.166Z,56.81
2023-05-09T09:08:10.356Z,55.34
2023-05-09T09:10:41.492Z,54.07
2023-05-09T09:13:10.345Z,55.27
2023-05-09T09:15:38.825Z,54.49
2023-05-09T09:18:11.733Z,55.38
2023-05-09T09:20:45.289Z,56.74
2023-05-09T09:23:17.381Z,55.93
2023-05-09T09:25:47.322Z,56.49
2023-05-09T09:28:14.691Z,58.47
2023-05-09T09:30:45.982Z,57.32
2023-05-09T09:33:23.035Z,56.21
2023-05-09T09:35:51.290Z,57.80
2023-05-09T09:38:19.805Z,56.77
2023-05-09T09:40:52.654Z,56.59
2023-05-09T09:43:19.948Z,57.62
2023-05-09T09:45:54.152Z,57.13
2023-05-09T09:48:26.234Z,58.39
2023-05-09T09:50:57.168Z,57.20
2023-05-09T09:53:30.580Z,56.63
2023-05-09T09:55:57.644Z,54.99
2023-05-09T09:58:25.741Z,53.88
2023-05-09T10:01:09.375Z,55.50
2023-05-09T10:03:38.052Z,55.96
2023-05-09T10:06:05.526Z,54.49
2023-05-09T10:08:32.484Z,54.58
2023-05-09T10:11:00.141Z,54.06
2023-05-09T10:13:28.432Z,54.81
2023-05-09T10:15:58.462Z,56.34
2023-05-09T10:18:28.880Z,56.84
2023-05-09T10:20:57.403Z,54.12
2023-05-09T10:23:25.627Z,55.91
2023-05-09T10:26:05.209Z,53.67
2023-05-09T10:28:35.326Z,50.88
2023-05-09T10:31:22.631Z,53.23
2023-05-09T10:33:51.192Z,48.19
2023-05-09T10:36:22.849Z,53.42
2023-05-09T10:38:50.994Z,49.40
2023-05-09T10:41:19.076Z,50.74
2023-05-09T10:43:46.272Z,47.17
2023-05-09T10:46:14.200Z,48.62
2023-05-09T10:48:42.351Z,51.22
2023-05-09T10:51:09.820Z,50.51
2023-05-09T10:53:50.234Z,48.64
2023-05-09T10:56:23.193Z,48.51
2023-05-09T10:58:50.219Z,50.07
2023-05-09T11:01:29.645Z,46.89
2023-05-09T11:03:58.227Z,47.44
2023-05-09T11:06:45.425Z,49.01
2023-05-09T11:09:33.085Z,49.12
2023-05-09T11:12:06.482Z,46.07
2023-05-09T11:14:38.338Z,44.63
2023-05-09T11:17:26.510Z,45.51
2023-05-09T11:19:53.498Z,46.75
2023-05-09T11:22:21.425Z,46.67
2023-05-09T11:24:54.258Z,47.14
2023-05-09T11:27:26.776Z,47.29
2023-05-09T11:29:56.424Z,46.58
2023-05-09T11:32:28.904Z,46.76
2023-05-09T11:35:16.011Z,46.69
2023-05-09T11:38:06.383Z,47.77
2023-05-09T11:40:34.968Z,46.39
2023-05-09T11:43:02.491Z,46.04
2023-05-09T11:45:32.144Z,46.32
2023-05-09T11:48:00.781Z,45.36
2023-05-09T11:50:27.803Z,46.03
2023-05-09T11:52:54.900Z,45.28
2023-05-09T11:55:23.132Z,45.79
2023-05-09T11:57:54.461Z,46.53
2023-05-09T12:00:23.689Z,46.51
2023-05-09T12:02:51.666Z,45.46
2023-05-09T12:05:20.755Z,45.77
2023-05-09T12:07:48.595Z,46.57
2023-05-09T12:10:17.327Z,46.63
2023-05-09T12:12:49.280Z,46.42
2023-05-09T12:15:17.346Z,44.89
2023-05-09T12:17:45.673Z,45.74
2023-05-09T12:20:13.122Z,44.37
2023-05-09T12:22:43.309Z,45.14
2023-05-09T12:25:12.220Z,44.11
2023-05-09T12:27:40.942Z,44.05
2023-05-09T12:30:10.611Z,43.69
2023-05-09T12:32:40.581Z,44.27
2023-05-09T12:35:10.758Z,45.08
2023-05-09T12:37:37.980Z,44.32
2023-05-09T12:40:06.409Z,45.00
2023-05-09T12:42:34.664Z,44.53
2023-05-09T12:45:07.843Z,44.75
2023-05-09T12:47:34.847Z,45.67
2023-05-09T12:50:03.412Z,44.04
2023-05-09T12:53:01.354Z,44.34
2023-05-09T12:55:30.586Z,44.89
2023-05-09T12:58:02.614Z,44.20
2023-05-09T13:00:42.551Z,44.37
2023-05-09T13:03:26.188Z,44.41
2023-05-09T13:06:04.955Z,43.12
2023-05-09T13:08:32.511Z,44.57
2023-05-09T13:11:11.934Z,43.98
2023-05-09T13:13:43.088Z,44.01
2023-05-09T13:16:11.136Z,42.88
2023-05-09T13:18:39.066Z,43.55
2023-05-09T13:21:06.081Z,43.20
2023-05-09T13:23:33.023Z,42.72
2023-05-09T13:25:59.976Z,43.15
2023-05-09T13:28:26.855Z,42.29
2023-05-09T13:30:53.810Z,42.35
2023-05-09T13:35:51.310Z,43.77
2023-05-09T13:38:18.182Z,42.90
2023-05-09T13:40:45.031Z,42.50
2023-05-09T13:43:12.062Z,42.90
2023-05-09T13:45:38.954Z,42.81
2023-05-09T13:48:06.125Z,44.06
2023-05-09T13:50:32.997Z,42.98
2023-05-09T13:53:00.029Z,40.96
2023-05-09T13:55:27.969Z,42.24
2023-05-09T13:57:55.139Z,41.73
2023-05-09T14:00:22.515Z,41.14
2023-05-09T14:02:49.415Z,42.88
2023-05-09T14:05:17.111Z,43.18
2023-05-09T14:07:44.280Z,42.98
2023-05-09T14:10:12.626Z,43.61
2023-05-09T14:12:44.559Z,43.23
2023-05-09T14:15:11.704Z,43.68
2023-05-09T14:17:38.866Z,42.68
2023-05-09T14:20:06.917Z,43.58
2023-05-09T14:22:33.839Z,42.39
2023-05-09T14:25:00.767Z,42.90
2023-05-09T14:27:27.797Z,43.01
2023-05-09T14:29:54.696Z,42.48
2023-05-09T14:32:21.703Z,43.46
2023-05-09T14:34:49.828Z,43.36
2023-05-09T14:37:17.148Z,43.47
2023-05-09T14:39:45.342Z,44.55
2023-05-09T14:42:14.313Z,43.31
2023-05-09T14:44:41.987Z,43.68
2023-05-09T14:47:10.007Z,43.96
2023-05-09T14:49:39.953Z,44.48
2023-05-09T14:52:06.928Z,44.82
2023-05-09T14:54:33.970Z,45.90
2023-05-09T14:57:05.638Z,45.93
2023-05-09T14:59:34.718Z,45.66
2023-05-09T15:02:03.030Z,44.59
2023-05-09T15:04:31.440Z,44.75
2023-05-09T15:06:59.256Z,45.53
2023-05-09T15:09:27.020Z,44.94
2023-05-09T15:11:55.118Z,45.77
2023-05-09T15:14:22.257Z,45.25
2023-05-09T15:16:49.263Z,45.18
2023-05-09T15:19:16.149Z,46.07
2023-05-09T15:21:43.070Z,45.93
2023-05-09T15:24:10.036Z,46.44
2023-05-09T15:26:36.927Z,45.82
2023-05-09T15:29:03.878Z,46.58
2023-05-09T15:31:33.138Z,46.21
2023-05-09T15:34:03.059Z,45.66
2023-05-09T15:36:30.309Z,46.64
2023-05-09T15:38:57.299Z,47.04
2023-05-09T15:41:24.472Z,46.34
2023-05-09T15:43:51.976Z,46.44
2023-05-09T15:46:19.077Z,46.26
2023-05-09T15:48:46.204Z,45.28
2023-05-09T15:51:14.078Z,45.72
2023-05-09T15:53:41.105Z,45.81
2023-05-09T15:56:08.737Z,46.59
2023-05-09T15:58:36.195Z,46.22
2023-05-09T16:01:08.233Z,46.20
2023-05-09T16:03:35.357Z,44.64
2023-05-09T16:06:02.525Z,44.75
2023-05-09T16:08:29.488Z,44.59
2023-05-09T16:10:56.403Z,45.93
2023-05-09T16:13:24.057Z,45.57
2023-05-09T16:15:51.330Z,46.07
2023-05-09T16:18:18.927Z,46.80
2023-05-09T16:20:45.925Z,47.13
2023-05-09T16:23:13.318Z,48.64
2023-05-09T16:25:40.185Z,49.06
2023-05-09T16:28:07.432Z,48.62
2023-05-09T16:30:34.685Z,48.81
2023-05-09T16:33:01.592Z,48.57
2023-05-09T16:35:29.082Z,49.43
2023-05-09T16:37:55.968Z,49.65
2023-05-09T16:40:22.968Z,49.76
2023-05-09T16:42:49.900Z,50.06
2023-05-09T16:45:16.744Z,50.55
2023-05-09T16:47:43.695Z,51.38
2023-05-09T16:50:11.111Z,51.54
2023-05-09T16:52:38.094Z,51.71
2023-05-09T16:55:25.649Z,51.86
2023-05-09T16:57:52.620Z,52.33
2023-05-09T17:00:20.067Z,52.25
2023-05-09T17:02:47.040Z,52.14
2023-05-09T17:05:13.907Z,51.71
2023-05-09T17:07:40.786Z,50.78
2023-05-09T17:10:08.172Z,51.20
2023-05-09T17:12:35.397Z,51.05
2023-05-09T17:15:02.373Z,51.63
2023-05-09T17:17:29.376Z,52.20
2023-05-09T17:19:56.344Z,52.46
2023-05-09T17:22:23.600Z,53.04
2023-05-09T17:24:50.530Z,53.35
2023-05-09T17:27:17.484Z,53.83
2023-05-09T17:29:44.344Z,53.88
2023-05-09T17:32:11.386Z,54.15
2023-05-09T17:34:39.236Z,54.32
2023-05-09T17:37:07.550Z,54.70
2023-05-09T17:39:34.548Z,54.78
2023-05-09T17:42:02.178Z,54.51
2023-05-09T17:44:29.104Z,54.45
2023-05-09T17:46:59.272Z,54.94
2023-05-09T17:49:26.165Z,54.85
2023-05-09T17:51:53.138Z,55.89
2023-05-09T17:54:20.149Z,55.90
2023-05-09T17:56:51.140Z,55.46
2023-05-09T17:59:18.765Z,56.05
2023-05-09T18:01:45.686Z,56.14
2023-05-09T18:04:13.323Z,56.06
2023-05-09T18:06:40.315Z,56.44
2023-05-09T18:09:07.396Z,57.24
2023-05-09T18:11:34.737Z,56.90
2023-05-09T18:14:01.767Z,57.13
2023-05-09T18:16:28.666Z,57.20
2023-05-09T18:18:55.799Z,57.74
2023-05-09T18:21:22.742Z,58.58
2023-05-09T18:23:49.604Z,58.81
2023-05-09T18:26:17.180Z,59.11
2023-05-09T18:28:44.668Z,58.88
2023-05-09T18:31:12.502Z,59.24
2023-05-09T18:33:39.788Z,60.11
2023-05-09T18:36:11.368Z,60.09
2023-05-09T18:38:39.583Z,60.41
2023-05-09T18:41:10.582Z,61.57
2023-05-09T18:43:39.053Z,61.68
2023-05-09T18:46:06.071Z,62.37
2023-05-09T18:48:33.675Z,62.25
2023-05-09T18:51:00.655Z,63.15
2023-05-09T18:53:29.016Z,63.47
2023-05-09T18:55:57.059Z,63.88
2023-05-09T18:58:24.944Z,63.64
2023-05-09T19:00:53.256Z,64.15
2023-05-09T19:03:21.034Z,64.77
2023-05-09T19:05:47.925Z,65.05
2023-05-09T19:08:14.913Z,65.01
2023-05-09T19:10:41.841Z,65.96
2023-05-09T19:13:09.050Z,65.46
2023-05-09T19:15:35.940Z,65.97
2023-05-09T19:18:03.643Z,66.22
2023-05-09T19:20:31.335Z,65.86
2023-05-09T19:22:58.648Z,65.32
2023-05-09T19:25:26.767Z,65.51
2023-05-09T19:27:53.692Z,65.67
2023-05-09T19:30:21.112Z,65.05
2023-05-09T19:32:48.153Z,65.60
2023-05-09T19:35:15.115Z,65.01
2023-05-09T19:37:42.024Z,64.80
2023-05-09T19:40:09.273Z,65.53
2023-05-09T19:42:36.632Z,65.56
2023-05-09T19:45:04.823Z,65.28
2023-05-09T19:47:31.846Z,65.29
2023-05-09T19:49:59.168Z,65.52
2023-05-09T19:52:26.102Z,65.39
2023-05-09T19:54:52.996Z,65.68
2023-05-09T19:57:20.842Z,66.00
2023-05-09T19:59:47.689Z,66.46
2023-05-09T20:02:14.676Z,66.89
2023-05-09T20:04:46.718Z,67.09
2023-05-09T20:07:13.661Z,67.84
2023-05-09T20:09:40.548Z,67.93
2023-05-09T20:12:07.632Z,68.14
2023-05-09T20:14:34.511Z,69.08
2023-05-09T20:17:01.749Z,69.64
2023-05-09T20:19:28.607Z,69.70
2023-05-09T20:21:55.500Z,69.53
2023-05-09T20:24:22.470Z,70.21
2023-05-09T20:26:49.411Z,70.31
2023-05-09T20:29:16.331Z,71.16
2023-05-09T20:31:43.311Z,71.87
2023-05-09T20:34:16.263Z,71.57
2023-05-09T20:36:43.470Z,72.05
2023-05-09T20:39:11.835Z,72.42
2023-05-09T20:41:38.995Z,73.09
2023-05-09T20:44:05.815Z,73.36
2023-05-09T20:46:32.723Z,74.12
2023-05-09T20:48:59.572Z,74.32
2023-05-09T20:51:26.734Z,74.48
2023-05-09T20:53:53.675Z,74.85
2023-05-09T20:56:21.699Z,75.53
2023-05-09T20:58:48.577Z,75.62
2023-05-09T21:01:15.594Z,75.61
2023-05-09T21:03:42.605Z,76.08
2023-05-09T21:06:09.538Z,76.48
2023-05-09T21:08:36.418Z,76.25
2023-05-09T21:11:03.393Z,77.05
2023-05-09T21:13:30.326Z,77.09
2023-05-09T21:15:57.773Z,78.12
2023-05-09T21:18:25.139Z,77.75
2023-05-09T21:20:52.010Z,78.64
2023-05-09T21:23:18.883Z,78.86
2023-05-09T21:25:45.881Z,79.15
2023-05-09T21:28:14.650Z,79.53
2023-05-09T21:30:41.618Z,80.40
2023-05-09T21:33:08.613Z,80.69
2023-05-09T21:35:35.510Z,80.59
2023-05-09T21:38:02.323Z,81.01
2023-05-09T21:40:29.124Z,80.92
2023-05-09T21:42:56.004Z,81.78
2023-05-09T21:45:22.995Z,82.12
2023-05-09T21:47:49.966Z,82.78
2023-05-09T21:50:17.179Z,82.95
2023-05-09T21:52:44.243Z,84.19
2023-05-09T21:55:11.151Z,83.75
2023-05-09T21:57:38.022Z,85.26
2023-05-09T22:00:06.904Z,85.31
2023-05-09T22:02:43.271Z,85.08
2023-05-09T22:05:10.610Z,84.86
2023-05-09T22:07:37.634Z,85.81
2023-05-09T22:10:04.952Z,86.35
2023-05-09T22:12:31.982Z,85.82
2023-05-09T22:14:59.329Z,86.61
2023-05-09T22:17:26.345Z,86.58
2023-05-09T22:19:53.338Z,87.05
2023-05-09T22:22:20.303Z,87.71
2023-05-09T22:24:47.162Z,88.00
2023-05-09T22:27:14.020Z,88.00
2023-05-09T22:29:40.902Z,89.48
2023-05-09T22:32:08.628Z,90.51
2023-05-09T22:34:36.035Z,90.19
2023-05-09T22:37:03.104Z,89.31
2023-05-09T22:39:31.157Z,90.25
2023-05-09T22:41:58.047Z,90.78
2023-05-09T22:44:25.058Z,90.16
2023-05-09T22:46:51.939Z,91.01
2023-05-09T22:49:22.310Z,92.12
2023-05-09T22:51:49.205Z,92.22
2023-05-09T22:54:20.702Z,93.13
2023-05-09T22:56:47.681Z,93.32
2023-05-09T22:59:14.574Z,94.12
2023-05-09T23:01:41.425Z,94.32
2023-05-09T23:04:08.601Z,94.61
2023-05-09T23:06:35.439Z,95.03
2023-05-09T23:09:02.232Z,94.45
2023-05-09T23:11:29.210Z,92.26
2023-05-09T23:13:56.005Z,92.88
2023-05-09T23:16:23.314Z,93.13
2023-05-09T23:18:50.282Z,94.46
2023-05-09T23:21:17.164Z,98.80
2023-05-09T23:23:44.056Z,100.00
2023-05-09T23:26:10.958Z,99.62
2023-05-09T23:28:37.764Z,100.00
2023-05-09T23:31:04.661Z,100.00
2023-05-09T23:33:31.702Z,100.00
2023-05-09T23:35:58.613Z,100.00
2023-05-09T23:38:25.567Z,99.80
2023-05-09T23:40:54.242Z,98.43
2023-05-09T23:43:21.087Z,97.45
2023-05-09T23:45:47.893Z,99.06
2023-05-09T23:48:14.736Z,100.00
2023-05-09T23:50:41.809Z,100.00
2023-05-09T23:53:08.747Z,100.00
2023-05-09T23:55:35.801Z,100.00
2023-05-09T23:58:02.714Z,100.00
